ADDS METAR Data INFO
IDs: Format: Raw Decoded Include TAF

Data at: 0846 UTC 27 Jun 2017

KECU 270835Z AUTO 00000KT 10SM SCT100 21/21 A3009 RMK AO2
KECU 270815Z AUTO 00000KT 10SM SCT100 21/21 A3010 RMK AO2
KECU 270755Z AUTO 00000KT 10SM FEW100 21/21 A3011 RMK AO2
KECU 270735Z AUTO 00000KT 10SM CLR 21/21 A3011 RMK AO2
KECU 270715Z AUTO 13004KT 10SM CLR 21/21 A3011 RMK AO2
KECU 270655Z AUTO 14005KT 10SM FEW110 21/21 A3011 RMK AO2
KECU 270635Z AUTO 14005KT 10SM FEW110 22/22 A3011 RMK AO2
KECU 270615Z AUTO 00000KT 10SM CLR 22/22 A3012 RMK AO2
KECU 270555Z AUTO 13007KT 10SM CLR 22/22 A3012 RMK AO2
KECU 270535Z AUTO 14007KT 10SM CLR 22/22 A3012 RMK AO2
KECU 270515Z AUTO 15007KT 10SM CLR 21/21 A3011 RMK AO2
KECU 270455Z AUTO 13008KT 10SM CLR 21/21 A3012 RMK AO2
KECU 270435Z AUTO 12008KT 10SM CLR 21/21 A3012 RMK AO2
KECU 270415Z AUTO 13008KT 10SM FEW009 21/21 A3012 RMK AO2
KECU 270355Z AUTO 11006G15KT 10SM BKN009 22/22 A3012 RMK AO2
KECU 270335Z AUTO 11008KT 10SM FEW009 FEW022 22/22 A3012 RMK AO2
KECU 270315Z AUTO 09008KT 10SM CLR 22/22 A3011 RMK AO2
KECU 270255Z AUTO 07008KT 10SM SCT075 22/22 A3011 RMK AO2
KECU 270235Z AUTO 05005KT 10SM BKN075 22/22 A3010 RMK AO2
KECU 270215Z AUTO 00000KT 10SM BKN075 22/22 A3009 RMK AO2
KECU 270155Z AUTO 00000KT 8SM -RA FEW026 FEW040 BKN075 23/23 A3009 RMK AO2
KECU 270135Z AUTO 08005KT 10SM FEW001 SCT048 BKN065 23/22 A3009 RMK AO2
KECU 270115Z AUTO 07005KT 10SM FEW090 23/22 A3009 RMK AO2
KECU 270055Z AUTO 05007KT 10SM CLR 23/22 A3009 RMK AO2
KECU 270035Z AUTO 05007KT 10SM CLR 24/23 A3009 RMK AO2
KECU 270015Z AUTO 00000KT 10SM FEW090 25/22 A3009 RMK AO2
KECU 262355Z AUTO 14005KT 10SM FEW100 25/22 A3007 RMK AO2
KECU 262335Z AUTO 16009KT 10SM FEW100 26/21 A3007 RMK AO2
KECU 262315Z AUTO 17008KT 10SM CLR 26/21 A3007 RMK AO2
KECU 262255Z AUTO 19009KT 10SM CLR 25/21 A3006 RMK AO2
KECU 262235Z AUTO 19006KT 10SM CLR 25/22 A3007 RMK AO2
KECU 262215Z AUTO 19006KT 10SM CLR 26/22 A3008 RMK AO2
KECU 262155Z AUTO 17009KT 10SM CLR 26/22 A3007 RMK AO2
KECU 262135Z AUTO 19007KT 10SM FEW100 27/22 A3008 RMK AO2
KECU 262115Z AUTO 18008KT 10SM FEW041 FEW090 27/21 A3009 RMK AO2
KECU 262055Z AUTO 18008KT 10SM CLR 28/21 A3009 RMK AO2
KECU 262035Z AUTO 15007KT 10SM FEW060 SCT075 26/22 A3010 RMK AO2
KECU 262015Z AUTO 14007KT 10SM FEW049 FEW060 28/19 A3011 RMK AO2
KECU 261955Z AUTO 07006KT 10SM FEW047 SCT060 BKN080 29/18 A3011 RMK AO2
KECU 261935Z AUTO 00000KT 10SM SCT047 SCT060 BKN080 29/18 A3012 RMK AO2
KECU 261915Z AUTO 00000KT 10SM BKN047 29/18 A3013 RMK AO2
KECU 261855Z AUTO 00000KT 10SM BKN049 BKN075 29/17 A3014 RMK AO2
KECU 261835Z AUTO 00000KT 10SM FEW014 SCT075 29/17 A3015 RMK AO2
KECU 261815Z AUTO 13007KT 10SM FEW016 FEW041 SCT060 29/17 A3015 RMK AO2
KECU 261755Z AUTO 14004KT 10SM FEW012 FEW038 SCT060 30/17 A3016 RMK AO2
KECU 261735Z AUTO 18004KT 10SM FEW040 SCT100 30/18 A3016 RMK AO2
KECU 261715Z AUTO 33004KT 10SM FEW042 FEW060 28/19 A3017 RMK AO2
KECU 261655Z AUTO 00000KT 10SM FEW070 28/20 A3018 RMK AO2
KECU 261635Z AUTO 00000KT 10SM SCT038 BKN055 27/20 A3019 RMK AO2
KECU 261615Z AUTO 00000KT 10SM SCT026 BKN034 BKN055 26/21 A3020 RMK AO2
KECU 261555Z AUTO 00000KT 10SM BKN026 BKN032 27/21 A3020 RMK AO2
KECU 261535Z AUTO 00000KT 10SM FEW024 FEW032 28/21 A3021 RMK AO2
KECU 261515Z AUTO 00000KT 10SM SCT021 BKN027 26/22 A3021 RMK AO2
KECU 261455Z AUTO 00000KT 10SM SCT018 SCT040 26/22 A3022 RMK AO2
KECU 261435Z AUTO 00000KT 10SM FEW014 FEW034 BKN040 25/23 A3022 RMK AO2
KECU 261415Z AUTO 00000KT 10SM SCT026 BKN044 24/24 A3023 RMK AO2
KECU 261355Z AUTO 00000KT 10SM SCT020 OVC026 23/23 A3022 RMK AO2
KECU 261335Z AUTO 00000KT 10SM BKN012 OVC020 23/23 A3022 RMK AO2
KECU 261315Z AUTO 00000KT OVC014 23/23 A3021 RMK AO2
KECU 261255Z AUTO 00000KT 10SM FEW010 BKN014 23/23 A3021 RMK AO2
KECU 261235Z AUTO 00000KT 10SM OVC014 23/23 A3020 RMK AO2
KECU 261215Z AUTO 00000KT 10SM FEW001 BKN008 OVC012 22/22 A3019 RMK AO2
KECU 261155Z AUTO 00000KT 10SM FEW001 OVC008 22/22 A3019 RMK AO2
KECU 261135Z AUTO 19003KT 10SM OVC008 22/22 A3018 RMK AO2
KECU 261115Z AUTO 18005KT 10SM OVC008 22/22 A3017 RMK AO2
KECU 261055Z AUTO 17006KT 10SM OVC008 22/22 A3017 RMK AO2
KECU 261035Z AUTO 00000KT 10SM OVC010 22/22 A3017 RMK AO2
KECU 261015Z AUTO 18006KT 10SM FEW001 OVC010 22/22 A3018 RMK AO2
KECU 260955Z AUTO 17006KT 10SM OVC010 22/22 A3018 RMK AO2
KECU 260935Z AUTO 17005KT 10SM BKN010 22/22 A3019 RMK AO2
KECU 260915Z AUTO 00000KT 10SM BKN010 22/22 A3019 RMK AO2
KECU 260855Z AUTO 00000KT 10SM OVC010 22/22 A3020 RMK AO2
KECU 260835Z AUTO 00000KT 10SM BKN010 22/22 A3020 RMK AO2
KECU 260815Z AUTO 14004KT 10SM CLR 22/22 A3020 RMK AO2
KECU 260755Z AUTO 14004KT 10SM FEW015 SCT020 22/22 A3020 RMK AO2
KECU 260735Z AUTO 14006KT 10SM FEW001 SCT015 23/23 A3021 RMK AO2
KECU 260715Z AUTO 15004KT 10SM FEW001 SCT023 22/22 A3021 RMK AO2
KECU 260655Z AUTO 15005KT 10SM BKN021 23/23 A3020 RMK AO2
KECU 260635Z AUTO 00000KT 10SM FEW001 23/23 A3020 RMK AO2
KECU 260615Z AUTO 15005KT 10SM FEW001 23/23 A3019 RMK AO2
KECU 260555Z AUTO 14003KT 10SM CLR 23/23 A3019 RMK AO2
KECU 260535Z AUTO 13005KT 10SM CLR 23/23 A3019 RMK AO2
KECU 260515Z AUTO 14006KT 10SM CLR 23/23 A3019 RMK AO2
KECU 260455Z AUTO 14004KT 10SM FEW001 24/22 A3020 RMK AO2
KECU 260435Z AUTO 14008KT 10SM FEW022 24/23 A3020 RMK AO2
KECU 260415Z AUTO 13005KT 10SM FEW022 SCT050 24/23 A3020 RMK AO2
KECU 260355Z AUTO 00000KT 10SM SCT050 24/22 A3019 RMK AO2
KECU 260335Z AUTO 13006KT 10SM CLR 24/21 A3019 RMK AO2
KECU 260315Z AUTO 14005KT 10SM CLR 25/21 A3018 RMK AO2
KECU 260255Z AUTO 14007KT 10SM FEW040 26/19 A3016 RMK AO2
KECU 260235Z AUTO 13009G15KT 10SM FEW040 26/19 A3016 RMK AO2
KECU 260215Z AUTO 14009G14KT 10SM BKN036 BKN042 BKN050 26/21 A3015 RMK AO2
KECU 260155Z AUTO 13012G18KT 10SM BKN036 28/21 A3014 RMK AO2
KECU 260135Z AUTO 17007KT 10SM FEW050 28/20 A3014 RMK AO2
KECU 260115Z AUTO 15008KT 10SM CLR 28/19 A3014 RMK AO2
KECU 260055Z AUTO 16008KT 9SM CLR 29/20 A3014 RMK AO2
KECU 260035Z AUTO 16008KT 9SM FEW060 29/19 A3014 RMK AO2
KECU 260015Z AUTO 16008G16KT 10SM SCT060 29/20 A3014 RMK AO2
KECU 252355Z AUTO 16010G15KT 10SM FEW049 SCT055 30/20 A3013 RMK AO2
KECU 252335Z AUTO 11010KT 10SM CLR 32/16 A3012 RMK AO2
KECU 252315Z AUTO 09008KT 10SM CLR 31/16 A3013 RMK AO2
KECU 252255Z AUTO 09008KT 10SM FEW075 32/16 A3014 RMK AO2
KECU 252235Z AUTO 08008KT 10SM FEW100 32/16 A3015 RMK AO2
KECU 252215Z AUTO 11009KT 10SM FEW065 SCT075 SCT090 32/16 A3015 RMK AO2
KECU 252155Z AUTO 10005KT 10SM FEW065 FEW085 32/16 A3016 RMK AO2
KECU 252135Z AUTO 11008G15KT 10SM SCT065 32/16 A3016 RMK AO2
KECU 252115Z AUTO 14008KT 10SM FEW065 32/16 A3015 RMK AO2
KECU 252055Z AUTO 00000KT 10SM FEW070 FEW085 31/16 A3016 RMK AO2


Page loaded:  08:46 UTC  |   01:46 AM Pacific  |   02:46 AM Mountain  |   03:46 AM Central  |   04:46 AM Eastern

 

ADVISORIES

FORECASTS

FORECASTS

OBSERVATIONS

USER TOOLS

ABOUT US